Time;durP1;ratioP1;P1;durP2;ratioP2;P2;SDS_P1;SDS_P2;PMS_P1;PMS_P2;Temp;Humidity;BMP_temperature;BMP_pressure;BME280_temperature;BME280_humidity;BME280_pressure;Samples;Min_cycle;Max_cycle;Signal;HPM_P1;HPM_P2
2022/04/03 00:00:10;;;;;;;6.73;4.23;;;;;;;1.18;100.00;99316.66;4916655;29;20197;-79
2022/04/03 00:02:38;;;;;;;5.77;4.23;;;;;;;0.98;100.00;99310.16;4910921;28;20638;-78
2022/04/03 00:05:10;;;;;;;7.40;4.63;;;;;;;1.02;100.00;99317.00;4969285;28;20203;-79
2022/04/03 00:07:44;;;;;;;7.00;4.67;;;;;;;1.02;100.00;99314.41;4915199;29;20209;-79
2022/04/03 00:10:14;;;;;;;6.10;4.67;;;;;;;1.13;100.00;99319.38;4916546;29;20264;-78
2022/04/03 00:12:46;;;;;;;6.53;4.10;;;;;;;1.06;100.00;99313.47;4914856;29;20213;-78
2022/04/03 00:15:16;;;;;;;6.63;4.23;;;;;;;1.06;100.00;99320.41;4926380;29;20567;-79
2022/04/03 00:17:46;;;;;;;6.27;4.57;;;;;;;1.00;100.00;99316.19;4952634;28;20235;-78
2022/04/03 00:20:16;;;;;;;5.83;4.30;;;;;;;0.89;100.00;99318.19;4948376;28;20208;-79
2022/04/03 00:22:48;;;;;;;6.87;4.40;;;;;;;0.89;100.00;99314.72;4951281;28;20232;-79
2022/04/03 00:25:18;;;;;;;6.67;4.50;;;;;;;0.92;100.00;99317.25;4945697;28;20219;-78
2022/04/03 00:27:47;;;;;;;5.50;4.63;;;;;;;0.86;100.00;99319.09;4950637;28;20279;-79
2022/04/03 00:30:16;;;;;;;6.83;4.53;;;;;;;0.77;100.00;99324.53;4948203;28;20220;-78
2022/04/03 00:32:44;;;;;;;7.03;4.20;;;;;;;0.71;100.00;99323.81;4946799;28;20208;-78
2022/04/03 00:35:13;;;;;;;8.37;4.70;;;;;;;0.69;100.00;99331.66;4946987;28;20200;-78
2022/04/03 00:37:41;;;;;;;6.83;4.40;;;;;;;0.69;100.00;99320.38;4896716;29;20282;-79
2022/04/03 00:40:15;;;;;;;8.10;4.87;;;;;;;0.60;100.00;99337.06;4951378;28;20196;-79
2022/04/03 00:42:45;;;;;;;6.60;4.87;;;;;;;0.53;100.00;99338.06;4947073;28;20252;-79
2022/04/03 00:45:16;;;;;;;7.27;4.63;;;;;;;0.52;100.00;99341.56;4951635;28;20197;-78
2022/04/03 00:47:46;;;;;;;5.97;4.67;;;;;;;0.49;100.00;99334.69;4951230;28;20200;-78
2022/04/03 00:50:18;;;;;;;8.10;5.20;;;;;;;0.33;100.00;99337.63;4923072;28;20271;-77
2022/04/03 00:52:47;;;;;;;8.37;5.47;;;;;;;0.29;100.00;99336.84;4954016;28;20295;-78
2022/04/03 00:55:19;;;;;;;7.50;5.07;;;;;;;0.31;100.00;99336.81;4962380;28;20206;-78
2022/04/03 00:57:48;;;;;;;10.53;5.63;;;;;;;0.30;100.00;99342.91;4992825;28;20227;-78
2022/04/03 01:00:17;;;;;;;6.80;5.07;;;;;;;0.22;100.00;99341.28;4996844;28;20207;-78
2022/04/03 01:02:45;;;;;;;9.40;5.27;;;;;;;0.36;100.00;99340.16;4995866;28;20207;-78
2022/04/03 01:05:15;;;;;;;6.33;4.53;;;;;;;0.28;100.00;99346.38;4992990;28;20226;-78
2022/04/03 01:07:44;;;;;;;6.27;4.53;;;;;;;0.13;100.00;99341.47;4991405;28;20199;-78
2022/04/03 01:10:14;;;;;;;6.90;4.90;;;;;;;0.01;100.00;99344.31;4995251;28;20210;-78
2022/04/03 01:12:49;;;;;;;7.33;4.33;;;;;;;0.05;100.00;99345.97;4990465;28;20199;-78
2022/04/03 01:15:21;;;;;;;5.23;4.23;;;;;;;-0.03;100.00;99347.84;4994813;28;20199;-79
2022/04/03 01:17:53;;;;;;;4.87;3.80;;;;;;;-0.01;100.00;99341.72;4993360;28;20226;-78
2022/04/03 01:20:25;;;;;;;6.27;3.60;;;;;;;-0.08;100.00;99353.13;4994220;28;20198;-78
2022/04/03 01:22:54;;;;;;;5.57;3.90;;;;;;;-0.24;100.00;99346.47;4994761;28;20286;-79
2022/04/03 01:25:24;;;;;;;5.73;3.30;;;;;;;-0.20;100.00;99350.72;4992489;28;20201;-78
2022/04/03 01:27:54;;;;;;;6.10;3.57;;;;;;;-0.14;100.00;99350.63;4992685;28;20281;-78
2022/04/03 01:30:22;;;;;;;4.47;3.20;;;;;;;-0.29;100.00;99345.69;4992251;28;20278;-79
2022/04/03 01:32:51;;;;;;;5.80;3.23;;;;;;;-0.26;100.00;99347.41;4993961;28;20199;-81
2022/04/03 01:35:19;;;;;;;4.17;3.57;;;;;;;-0.33;100.00;99341.44;4993918;28;20223;-80
2022/04/03 01:37:50;;;;;;;5.50;3.37;;;;;;;-0.27;100.00;99345.69;4995629;28;20211;-78
2022/04/03 01:40:19;;;;;;;4.67;3.23;;;;;;;-0.18;100.00;99348.13;4950875;28;20667;-79
2022/04/03 01:42:50;;;;;;;4.83;2.70;;;;;;;-0.27;100.00;99349.16;4949594;28;20208;-78
2022/04/03 01:45:20;;;;;;;4.13;2.80;;;;;;;-0.31;100.00;99352.66;4915009;29;20280;-79
2022/04/03 01:47:52;;;;;;;5.47;2.87;;;;;;;-0.32;100.00;99348.34;4912973;29;20201;-78
2022/04/03 01:50:21;;;;;;;5.30;3.10;;;;;;;-0.25;100.00;99352.56;4910324;29;20339;-78
2022/04/03 01:52:50;;;;;;;5.77;2.80;;;;;;;-0.22;100.00;99349.06;4867978;29;20205;-79
2022/04/03 01:55:23;;;;;;;4.53;3.10;;;;;;;-0.38;100.00;99344.13;4914706;29;20201;-79
2022/04/03 01:57:53;;;;;;;5.57;3.10;;;;;;;-0.31;100.00;99348.31;4917728;28;20229;-80
2022/04/03 02:00:22;;;;;;;3.63;3.20;;;;;;;-0.40;100.00;99351.06;4929631;29;20201;-78
2022/04/03 02:02:51;;;;;;;3.30;2.87;;;;;;;-0.36;100.00;99338.91;4939919;28;20250;-78
2022/04/03 02:05:21;;;;;;;3.30;2.60;;;;;;;-0.41;100.00;99345.91;4963411;28;20210;-79
2022/04/03 02:07:50;;;;;;;6.87;3.03;;;;;;;-0.30;100.00;99342.22;4952535;28;20286;-79
2022/04/03 02:10:22;;;;;;;3.60;2.40;;;;;;;-0.59;100.00;99353.13;4965279;28;20195;-78
2022/04/03 02:12:53;;;;;;;4.67;2.80;;;;;;;-0.60;100.00;99350.53;4972019;28;20280;-79
2022/04/03 02:15:24;;;;;;;3.83;2.70;;;;;;;-0.48;100.00;99344.28;4974568;28;20203;-78
2022/04/03 02:17:53;;;;;;;3.90;2.60;;;;;;;-0.56;100.00;99346.19;4977362;28;20210;-78
2022/04/03 02:20:21;;;;;;;4.67;2.90;;;;;;;-0.55;100.00;99353.94;4997703;28;20285;-78
2022/04/03 02:22:50;;;;;;;4.53;2.87;;;;;;;-0.51;100.00;99352.13;4995115;28;20706;-79
2022/04/03 02:25:19;;;;;;;3.30;2.43;;;;;;;-0.50;100.00;99356.47;4991961;28;20242;-79
2022/04/03 02:27:48;;;;;;;4.80;2.60;;;;;;;-0.49;100.00;99359.03;4993699;28;20215;-79
2022/04/03 02:30:18;;;;;;;3.93;2.70;;;;;;;-0.56;100.00;99354.84;4992020;28;20206;-79
2022/04/03 02:32:52;;;;;;;3.77;2.50;;;;;;;-0.53;100.00;99356.53;4992788;28;20202;-79
2022/04/03 02:35:20;;;;;;;3.83;2.70;;;;;;;-0.57;100.00;99357.47;4995495;28;20205;-79
2022/04/03 02:37:49;;;;;;;4.13;2.83;;;;;;;-0.57;100.00;99353.13;4986706;28;20195;-79
2022/04/03 02:40:18;;;;;;;3.37;2.77;;;;;;;-0.51;100.00;99357.34;4956150;28;20212;-79
2022/04/03 02:42:47;;;;;;;4.87;2.97;;;;;;;-0.55;100.00;99360.91;4952406;28;20199;-79
2022/04/03 02:45:17;;;;;;;2.80;2.50;;;;;;;-0.70;100.00;99351.56;4951910;28;20702;-79
2022/04/03 02:47:50;;;;;;;5.43;3.03;;;;;;;-0.70;100.00;99357.63;4956070;28;20211;-79
2022/04/03 02:50:19;;;;;;;4.40;2.90;;;;;;;-0.64;100.00;99359.28;4956248;28;20201;-78
2022/04/03 02:52:49;;;;;;;3.30;2.60;;;;;;;-0.70;100.00;99364.56;4964898;28;20268;-79
2022/04/03 02:55:18;;;;;;;4.40;2.80;;;;;;;-0.59;100.00;99365.25;4974823;28;20215;-79
2022/04/03 02:57:48;;;;;;;3.10;2.73;;;;;;;-0.58;100.00;99359.19;4973487;28;20207;-79
2022/04/03 03:00:19;;;;;;;3.13;2.47;;;;;;;-0.67;100.00;99356.75;4993527;28;20227;-79
2022/04/03 03:02:51;;;;;;;4.70;2.80;;;;;;;-0.54;100.00;99360.00;4994803;28;20211;-80
2022/04/03 03:05:20;;;;;;;3.27;2.50;;;;;;;-0.55;100.00;99356.53;4989551;28;20207;-80
2022/04/03 03:07:49;;;;;;;3.73;2.50;;;;;;;-0.60;100.00;99363.56;4996368;28;20191;-79
2022/04/03 03:10:19;;;;;;;3.80;3.10;;;;;;;-0.65;100.00;99360.19;4991004;28;20232;-80
2022/04/03 03:12:48;;;;;;;4.33;2.37;;;;;;;-0.64;100.00;99360.16;4995669;28;20214;-79
2022/04/03 03:15:19;;;;;;;2.90;2.33;;;;;;;-0.69;100.00;99353.28;4974727;28;20203;-80
2022/04/03 03:17:48;;;;;;;2.97;2.00;;;;;;;-0.63;100.00;99361.88;4969153;28;20287;-79
2022/04/03 03:20:22;;;;;;;3.20;2.37;;;;;;;-0.69;100.00;99361.94;4973536;28;20226;-79
2022/04/03 03:22:52;;;;;;;4.23;2.57;;;;;;;-0.71;100.00;99362.84;4970075;28;20267;-78
2022/04/03 03:25:26;;;;;;;4.57;2.37;;;;;;;-0.66;100.00;99358.47;4934970;29;20688;-79
2022/04/03 03:27:56;;;;;;;3.37;2.30;;;;;;;-0.65;100.00;99362.78;4931809;29;20205;-79
2022/04/03 03:30:29;;;;;;;3.33;2.60;;;;;;;-0.66;100.00;99367.13;4935343;29;20205;-79
2022/04/03 03:32:57;;;;;;;3.43;2.40;;;;;;;-0.63;100.00;99353.22;4943447;28;20200;-79
2022/04/03 03:35:25;;;;;;;3.43;2.40;;;;;;;-0.63;100.00;99364.47;4973249;28;20259;-80
2022/04/03 03:37:54;;;;;;;3.00;2.30;;;;;;;-0.61;100.00;99361.84;4913607;29;20201;-80
2022/04/03 03:40:23;;;;;;;2.90;2.37;;;;;;;-0.69;100.00;99361.09;4914029;29;20229;-79
2022/04/03 03:42:56;;;;;;;3.93;2.50;;;;;;;-0.79;100.00;99362.97;4923355;29;20243;-79
2022/04/03 03:45:25;;;;;;;2.83;2.33;;;;;;;-0.72;100.00;99372.41;4915458;29;20205;-79
2022/04/03 03:47:57;;;;;;;4.63;2.33;;;;;;;-0.69;100.00;99368.88;4912678;29;20667;-79
2022/04/03 03:50:26;;;;;;;3.77;2.20;;;;;;;-0.75;100.00;99371.59;4914538;29;20245;-79
2022/04/03 03:52:54;;;;;;;2.87;2.40;;;;;;;-0.74;100.00;99370.72;4916951;29;20208;-79
2022/04/03 03:55:24;;;;;;;4.93;2.67;;;;;;;-0.89;100.00;99375.25;4913072;29;20729;-79
2022/04/03 03:57:52;;;;;;;2.37;2.07;;;;;;;-0.92;100.00;99379.63;4914992;29;20222;-79
2022/04/03 04:00:23;;;;;;;2.57;2.00;;;;;;;-0.90;100.00;99383.94;4915842;29;20217;-79
2022/04/03 04:02:51;;;;;;;2.97;2.27;;;;;;;-0.89;100.00;99385.66;4958255;28;20706;-81
2022/04/03 04:05:22;;;;;;;3.80;2.37;;;;;;;-0.94;100.00;99384.00;4960701;28;20275;-79
2022/04/03 04:07:52;;;;;;;4.47;2.50;;;;;;;-0.99;100.00;99389.25;4993986;28;20222;-79
2022/04/03 04:10:21;;;;;;;4.20;2.50;;;;;;;-0.97;100.00;99392.69;4985163;28;20199;-79
2022/04/03 04:12:50;;;;;;;3.30;2.27;;;;;;;-1.07;100.00;99400.63;4988148;28;20722;-79
2022/04/03 04:15:20;;;;;;;3.27;2.40;;;;;;;-1.16;100.00;99401.59;4986601;28;20198;-79
2022/04/03 04:17:49;;;;;;;4.10;2.50;;;;;;;-1.08;100.00;99396.31;4986402;28;20206;-79
2022/04/03 04:20:23;;;;;;;2.77;2.20;;;;;;;-1.13;100.00;99400.72;4987190;28;20227;-79
2022/04/03 04:22:53;;;;;;;3.47;2.50;;;;;;;-1.10;100.00;99417.13;4989215;28;20701;-79
2022/04/03 04:25:23;;;;;;;3.30;2.33;;;;;;;-1.11;100.00;99417.16;4987881;28;20214;-79
2022/04/03 04:27:52;;;;;;;3.00;2.60;;;;;;;-1.25;100.00;99415.59;4986833;28;20199;-79
2022/04/03 04:30:22;;;;;;;3.60;2.13;;;;;;;-1.34;100.00;99420.91;4959549;28;20222;-79
2022/04/03 04:32:51;;;;;;;4.93;2.40;;;;;;;-1.28;100.00;99425.16;4962925;28;20193;-79
2022/04/03 04:35:23;;;;;;;3.80;2.30;;;;;;;-1.26;100.00;99423.38;4985506;28;20206;-79
2022/04/03 04:37:52;;;;;;;3.77;2.47;;;;;;;-1.39;100.00;99421.81;4997186;28;20642;-79
2022/04/03 04:40:22;;;;;;;5.20;2.83;;;;;;;-1.41;100.00;99431.38;4992448;28;20219;-79
2022/04/03 04:42:51;;;;;;;4.43;2.43;;;;;;;-1.45;100.00;99423.63;4990172;28;20202;-79
2022/04/03 04:45:20;;;;;;;3.63;2.23;;;;;;;-1.37;100.00;99427.84;4988922;28;20223;-79
2022/04/03 04:47:50;;;;;;;3.07;2.27;;;;;;;-1.40;100.00;99430.50;4991546;28;20677;-79
2022/04/03 04:50:19;;;;;;;3.10;2.37;;;;;;;-1.45;100.00;99433.13;4993723;28;20233;-79
2022/04/03 04:52:51;;;;;;;3.70;2.40;;;;;;;-1.48;100.00;99435.78;4992243;28;20194;-79
2022/04/03 04:55:19;;;;;;;3.33;2.33;;;;;;;-1.49;100.00;99434.06;4994661;28;20346;-79
2022/04/03 04:57:52;;;;;;;3.27;2.17;;;;;;;-1.45;100.00;99441.81;4989933;28;20202;-79
2022/04/03 05:00:24;;;;;;;2.77;2.27;;;;;;;-1.51;100.00;99447.06;4994430;28;20685;-79
2022/04/03 05:02:57;;;;;;;2.57;2.10;;;;;;;-1.43;100.00;99444.38;4988312;28;20203;-79
2022/04/03 05:05:28;;;;;;;3.53;2.27;;;;;;;-1.53;100.00;99454.03;4992175;28;20199;-79
2022/04/03 05:08:00;;;;;;;3.90;2.17;;;;;;;-1.53;100.00;99453.16;4993331;28;20694;-79
2022/04/03 05:10:32;;;;;;;8.23;2.67;;;;;;;-1.51;100.00;99454.00;4991496;28;20205;-78
2022/04/03 05:13:03;;;;;;;2.73;1.83;;;;;;;-1.45;100.00;99462.59;4991616;28;20661;-78
2022/04/03 05:15:33;;;;;;;3.37;2.13;;;;;;;-1.43;100.00;99462.56;4994018;28;20203;-79
2022/04/03 05:18:01;;;;;;;2.60;2.00;;;;;;;-1.49;100.00;99460.03;4991397;28;20199;-79
2022/04/03 05:20:31;;;;;;;4.07;2.20;;;;;;;-1.50;100.00;99461.78;4969192;28;20219;-79
2022/04/03 05:23:02;;;;;;;4.20;2.40;;;;;;;-1.47;100.00;99472.13;4968033;28;20219;-79
2022/04/03 05:25:31;;;;;;;3.90;2.00;;;;;;;-1.50;100.00;99471.31;4970253;28;20287;-78
2022/04/03 05:28:00;;;;;;;3.37;2.00;;;;;;;-1.39;100.00;99464.25;4939970;28;20235;-79
2022/04/03 05:30:30;;;;;;;3.17;2.03;;;;;;;-1.24;100.00;99468.44;4964375;28;20215;-78
2022/04/03 05:33:00;;;;;;;3.00;2.00;;;;;;;-1.39;100.00;99468.59;4968573;28;20199;-79
2022/04/03 05:35:28;;;;;;;2.87;2.00;;;;;;;-1.34;100.00;99475.47;4971549;28;20199;-79
2022/04/03 05:37:58;;;;;;;3.80;2.10;;;;;;;-1.57;100.00;99477.41;4972770;28;20202;-79
2022/04/03 05:40:28;;;;;;;2.10;1.87;;;;;;;-1.52;100.00;99471.31;4993931;28;20218;-79
2022/04/03 05:42:57;;;;;;;2.77;1.80;;;;;;;-1.45;100.00;99477.28;4990988;28;20191;-79
2022/04/03 05:45:26;;;;;;;4.97;1.97;;;;;;;-1.66;100.00;99480.09;4988716;28;20202;-78
2022/04/03 05:47:56;;;;;;;3.70;1.93;;;;;;;-1.58;100.00;99486.09;4988305;28;20205;-79
2022/04/03 05:50:27;;;;;;;3.90;2.27;;;;;;;-1.62;100.00;99481.81;4950898;28;20192;-78
2022/04/03 05:52:57;;;;;;;4.43;2.20;;;;;;;-1.59;100.00;99490.44;4948843;28;20655;-79
2022/04/03 05:55:31;;;;;;;2.47;1.70;;;;;;;-1.46;100.00;99493.75;4941962;28;20215;-79
2022/04/03 05:58:00;;;;;;;3.73;2.13;;;;;;;-1.39;100.00;99492.81;4943875;28;20275;-79
2022/04/03 06:00:35;;;;;;;2.33;1.90;;;;;;;-1.28;100.00;99496.16;4890875;29;20225;-79
2022/04/03 06:03:07;;;;;;;4.03;2.23;;;;;;;-1.19;100.00;99508.19;4892412;29;20684;-79
2022/04/03 06:05:38;;;;;;;3.17;1.97;;;;;;;-1.09;100.00;99507.22;4890382;29;20642;-79
2022/04/03 06:08:08;;;;;;;2.77;2.00;;;;;;;-0.96;100.00;99506.22;4902710;29;20208;-79
2022/04/03 06:10:41;;;;;;;2.87;1.93;;;;;;;-0.93;100.00;99507.91;4930303;29;20193;-79
2022/04/03 06:13:12;;;;;;;2.20;1.97;;;;;;;-0.80;100.00;99513.81;4928744;29;20205;-79
2022/04/03 06:15:45;;;;;;;2.53;2.07;;;;;;;-0.71;100.00;99511.94;4932375;29;20226;-79
2022/04/03 06:18:14;;;;;;;3.30;2.10;;;;;;;-0.55;100.00;99514.38;4952974;28;20674;-81
2022/04/03 06:20:44;;;;;;;3.17;2.03;;;;;;;-0.58;100.00;99512.63;4989869;28;20305;-79
2022/04/03 06:23:13;;;;;;;2.23;1.80;;;;;;;-0.56;100.00;99512.66;4993566;28;20282;-79
2022/04/03 06:25:44;;;;;;;3.57;2.20;;;;;;;-0.49;100.00;99519.47;4993330;28;20251;-79
2022/04/03 06:28:14;;;;;;;4.07;2.10;;;;;;;-0.48;100.00;99522.06;4990903;28;20195;-79
2022/04/03 06:30:43;;;;;;;3.57;2.10;;;;;;;-0.45;100.00;99515.97;4990867;28;20203;-79
2022/04/03 06:33:12;;;;;;;2.90;1.90;;;;;;;-0.38;100.00;99515.84;4993419;28;20234;-79
2022/04/03 06:35:40;;;;;;;2.40;1.73;;;;;;;-0.34;100.00;99519.25;4990043;28;20192;-79
2022/04/03 06:38:11;;;;;;;2.60;1.80;;;;;;;-0.29;100.00;99520.03;4992566;28;20282;-79
2022/04/03 06:40:48;;;;;;;4.17;1.97;;;;;;;-0.27;100.00;99520.03;4913042;29;20225;-79
2022/04/03 06:43:19;;;;;;;3.17;2.10;;;;;;;-0.22;100.00;99529.50;4910464;29;20242;-79
2022/04/03 06:45:49;;;;;;;3.57;2.60;;;;;;;-0.14;100.00;99529.38;4913872;29;20213;-79
2022/04/03 06:48:18;;;;;;;5.17;3.53;;;;;;;-0.12;100.00;99525.88;4912329;29;20197;-78
2022/04/03 06:50:49;;;;;;;5.13;2.37;;;;;;;0.14;100.00;99535.03;4913015;29;20204;-79
2022/04/03 06:53:18;;;;;;;2.87;2.43;;;;;;;-0.11;100.00;99532.78;4912108;29;20198;-78
2022/04/03 06:55:48;;;;;;;2.77;2.20;;;;;;;0.12;100.00;99529.00;4874788;29;20195;-78
2022/04/03 06:58:19;;;;;;;3.07;2.10;;;;;;;0.13;100.00;99535.91;4900598;28;20247;-78
2022/04/03 07:00:55;;;;;;;2.57;2.00;;;;;;;0.17;100.00;99537.56;4977779;28;20192;-79
2022/04/03 07:03:23;;;;;;;2.70;2.07;;;;;;;0.26;100.00;99534.81;4969532;28;20227;-79
2022/04/03 07:05:52;;;;;;;2.00;1.80;;;;;;;0.35;100.00;99539.03;4968085;28;20370;-79
2022/04/03 07:08:21;;;;;;;3.10;2.33;;;;;;;0.53;100.00;99539.56;4973723;28;20211;-78
2022/04/03 07:10:52;;;;;;;3.30;2.30;;;;;;;0.61;100.00;99544.66;4971286;28;20275;-79
2022/04/03 07:13:20;;;;;;;3.73;2.30;;;;;;;0.64;100.00;99541.13;4973612;28;20213;-79
2022/04/03 07:15:50;;;;;;;4.60;2.07;;;;;;;0.81;100.00;99542.56;5002003;28;20205;-79
2022/04/03 07:18:19;;;;;;;2.60;2.07;;;;;;;0.92;100.00;99552.78;5005699;28;20278;-80
2022/04/03 07:20:50;;;;;;;4.87;2.53;;;;;;;1.04;100.00;99544.72;4951498;28;20200;-79
2022/04/03 07:23:22;;;;;;;2.63;1.90;;;;;;;0.87;100.00;99549.41;4954035;28;20275;-79
2022/04/03 07:25:54;;;;;;;3.57;2.10;;;;;;;1.03;100.00;99545.63;4955384;28;20189;-79
2022/04/03 07:28:24;;;;;;;4.60;2.00;;;;;;;1.31;100.00;99555.50;4954424;28;20203;-79
2022/04/03 07:30:53;;;;;;;4.20;2.03;;;;;;;1.09;100.00;99558.53;4953656;28;20192;-79
2022/04/03 07:33:22;;;;;;;2.50;1.97;;;;;;;1.34;100.00;99555.44;4953585;28;20337;-79
2022/04/03 07:35:50;;;;;;;3.60;1.93;;;;;;;1.54;100.00;99555.03;4944638;28;20247;-79
2022/04/03 07:38:19;;;;;;;2.67;1.80;;;;;;;1.57;100.00;99558.44;4960559;28;20291;-79
2022/04/03 07:40:48;;;;;;;2.37;1.70;;;;;;;1.72;100.00;99560.72;4993746;28;20265;-79
2022/04/03 07:43:26;;;;;;;3.23;1.80;;;;;;;1.91;100.00;99557.69;4993047;28;20651;-79
2022/04/03 07:45:56;;;;;;;3.10;1.70;;;;;;;1.93;100.00;99562.00;4991649;28;20290;-78
2022/04/03 07:48:25;;;;;;;1.97;1.60;;;;;;;2.06;100.00;99556.50;4991858;28;20286;-79
2022/04/03 07:50:55;;;;;;;2.77;2.00;;;;;;;2.18;100.00;99569.28;4995555;28;20191;-79
2022/04/03 07:53:23;;;;;;;2.67;1.80;;;;;;;2.13;100.00;99565.94;4997937;28;20207;-77
2022/04/03 07:55:53;;;;;;;8.53;2.50;;;;;;;2.27;100.00;99569.91;4995339;28;20199;-78
2022/04/03 07:58:21;;;;;;;3.50;1.80;;;;;;;2.45;100.00;99571.22;5006903;28;20194;-78
2022/04/03 08:00:51;;;;;;;1.73;1.40;;;;;;;2.47;96.71;99566.81;5010676;28;20198;-78
2022/04/03 08:03:20;;;;;;;3.47;1.90;;;;;;;2.47;95.99;99579.03;5001127;28;20337;-78
2022/04/03 08:05:49;;;;;;;2.00;1.70;;;;;;;2.54;94.85;99578.84;5007597;28;20206;-78
2022/04/03 08:08:17;;;;;;;2.07;1.70;;;;;;;2.62;92.79;99575.19;5004213;28;20203;-78
2022/04/03 08:10:47;;;;;;;3.60;2.07;;;;;;;2.16;94.05;99579.75;5006247;28;20293;-78
2022/04/03 08:13:16;;;;;;;2.17;1.70;;;;;;;2.46;91.12;99578.19;4972497;28;20282;-78
2022/04/03 08:15:44;;;;;;;1.80;1.50;;;;;;;2.77;91.73;99577.41;4968843;28;20206;-78
2022/04/03 08:18:15;;;;;;;2.70;1.70;;;;;;;2.55;89.56;99587.56;4941903;28;20218;-78
2022/04/03 08:20:45;;;;;;;3.57;1.90;;;;;;;2.83;90.25;99580.72;4969869;28;20300;-78
2022/04/03 08:23:15;;;;;;;3.53;1.70;;;;;;;2.85;86.99;99583.31;4969333;28;20243;-78
2022/04/03 08:25:45;;;;;;;2.73;1.93;;;;;;;2.78;88.96;99586.97;4965995;28;20258;-78
2022/04/03 08:28:16;;;;;;;2.63;1.73;;;;;;;3.09;90.64;99594.91;4968887;28;20211;-78
2022/04/03 08:30:46;;;;;;;2.60;1.83;;;;;;;3.28;88.58;99595.22;4977763;28;20290;-79
2022/04/03 08:33:18;;;;;;;6.17;2.63;;;;;;;2.98;85.89;99592.53;4995055;28;20205;-79
2022/04/03 08:35:48;;;;;;;2.90;1.87;;;;;;;3.35;87.15;99589.78;4995125;28;20202;-78
2022/04/03 08:38:17;;;;;;;2.87;2.30;;;;;;;3.11;83.73;99598.31;4992520;28;20199;-79
2022/04/03 08:40:46;;;;;;;2.80;1.97;;;;;;;3.17;85.75;99595.53;4993189;28;20195;-78
2022/04/03 08:43:16;;;;;;;2.67;1.77;;;;;;;3.42;84.37;99590.50;4992086;28;20277;-79
2022/04/03 08:45:44;;;;;;;2.80;1.60;;;;;;;3.61;85.06;99593.44;4992411;28;20198;-78
2022/04/03 08:48:18;;;;;;;2.40;1.70;;;;;;;3.85;86.23;99584.84;4994489;28;20206;-79
2022/04/03 08:50:52;;;;;;;2.23;1.60;;;;;;;3.94;87.52;99595.06;4996926;28;20210;-78
2022/04/03 08:53:24;;;;;;;4.87;1.93;;;;;;;4.08;86.00;99589.41;4935001;29;20220;-79
2022/04/03 08:55:53;;;;;;;3.17;1.83;;;;;;;4.18;80.74;99590.00;4930537;29;20197;-79
2022/04/03 08:58:21;;;;;;;3.37;1.90;;;;;;;4.19;81.46;99586.47;4931802;29;20265;-79
2022/04/03 09:00:50;;;;;;;1.90;1.50;;;;;;;4.22;79.26;99592.44;4931946;29;20233;-79
2022/04/03 09:03:21;;;;;;;2.77;1.80;;;;;;;4.50;80.07;99591.59;4929190;29;20232;-79
2022/04/03 09:05:51;;;;;;;3.57;1.97;;;;;;;4.18;74.93;99590.84;4929002;29;20204;-79
2022/04/03 09:08:36;;;;;;;2.23;1.67;;;;;;;4.26;77.26;99588.00;4931330;29;20657;-79
2022/04/03 09:11:05;;;;;;;2.53;1.70;;;;;;;4.60;73.64;99588.59;4935829;28;20284;-79
2022/04/03 09:13:34;;;;;;;2.00;1.73;;;;;;;4.79;73.53;99591.47;4928013;29;20193;-79
2022/04/03 09:16:03;;;;;;;2.20;1.70;;;;;;;4.75;69.83;99587.25;4934944;29;20285;-79
2022/04/03 09:18:47;;;;;;;2.57;1.70;;;;;;;4.74;64.82;99589.94;4974215;28;20195;-79
2022/04/03 09:21:23;;;;;;;4.33;1.93;;;;;;;4.56;65.61;99589.63;4969374;28;20235;-79
2022/04/03 09:24:03;;;;;;;4.00;1.90;;;;;;;4.57;65.66;99586.09;4969654;28;20230;-79
2022/04/03 09:26:33;;;;;;;3.27;2.00;;;;;;;4.84;66.22;99584.31;4969004;28;20376;-79
2022/04/03 09:29:14;;;;;;;3.07;2.10;;;;;;;5.04;61.29;99583.63;4972364;28;20211;-79
2022/04/03 09:31:45;;;;;;;3.10;2.00;;;;;;;4.74;58.25;99590.78;4973225;28;20223;-78
2022/04/03 09:34:19;;;;;;;2.93;2.30;;;;;;;5.41;58.76;99577.09;4970057;28;20208;-78
2022/04/03 09:36:58;;;;;;;5.00;2.27;;;;;;;5.59;58.67;99583.41;4972219;28;20199;-78
2022/04/03 09:39:28;;;;;;;4.43;2.53;;;;;;;5.79;60.88;99586.19;4982690;28;20200;-79
2022/04/03 09:42:03;;;;;;;2.60;2.10;;;;;;;5.37;57.08;99585.97;4975156;28;20236;-79
2022/04/03 09:44:34;;;;;;;2.20;1.90;;;;;;;5.45;54.15;99583.94;4951272;28;20742;-79
2022/04/03 09:47:17;;;;;;;3.63;2.03;;;;;;;5.15;56.57;99588.50;4948321;29;20216;-79
2022/04/03 09:49:51;;;;;;;3.27;1.80;;;;;;;4.57;55.22;99588.72;4953961;28;20193;-80
2022/04/03 09:52:55;;;;;;;2.60;2.00;;;;;;;4.94;54.88;99584.00;4961825;28;20199;-79
2022/04/03 09:55:28;;;;;;;2.07;1.83;;;;;;;4.90;54.28;99583.25;4892105;29;20214;-79
2022/04/03 09:58:04;;;;;;;3.33;1.80;;;;;;;4.56;53.83;99584.38;4957960;28;20214;-79
2022/04/03 10:00:48;;;;;;;2.97;1.93;;;;;;;4.60;55.15;99585.13;4970410;28;20208;-79
2022/04/03 10:03:17;;;;;;;2.30;2.10;;;;;;;5.13;54.38;99590.34;4938200;28;20698;-79
2022/04/03 10:05:47;;;;;;;3.87;2.17;;;;;;;5.28;52.15;99579.28;4970001;28;20214;-78
2022/04/03 10:08:20;;;;;;;2.97;1.87;;;;;;;5.92;52.63;99583.97;4972575;28;20340;-79
2022/04/03 10:10:48;;;;;;;3.10;1.60;;;;;;;6.26;52.44;99586.13;4989751;28;20205;-79
2022/04/03 10:13:17;;;;;;;2.33;1.90;;;;;;;5.48;49.99;99586.44;4994413;28;20250;-80
2022/04/03 10:15:48;;;;;;;3.13;1.90;;;;;;;5.20;51.31;99583.94;4952795;29;20696;-79
2022/04/03 10:18:18;;;;;;;4.27;2.00;;;;;;;5.09;53.59;99581.69;4950555;29;20204;-79
2022/04/03 10:20:49;;;;;;;2.73;1.93;;;;;;;5.08;54.33;99580.00;4953025;29;20195;-79
2022/04/03 10:23:23;;;;;;;2.00;1.60;;;;;;;5.10;51.46;99579.94;4950046;28;20236;-79
2022/04/03 10:25:54;;;;;;;3.33;1.50;;;;;;;5.93;51.55;99575.16;4944057;29;20204;-79
2022/04/03 10:28:25;;;;;;;2.90;2.10;;;;;;;6.40;49.37;99564.56;4948475;29;20288;-79
2022/04/03 10:31:00;;;;;;;2.30;1.90;;;;;;;6.56;48.43;99574.41;4951734;28;20200;-79
2022/04/03 10:33:37;;;;;;;1.97;1.77;;;;;;;6.94;47.29;99563.16;4963390;28;20657;-79
2022/04/03 10:36:08;;;;;;;3.40;2.50;;;;;;;6.26;45.79;99565.94;4994253;28;20231;-79
2022/04/03 10:38:39;;;;;;;2.40;1.97;;;;;;;6.82;47.05;99554.03;4992674;28;20203;-79
2022/04/03 10:41:09;;;;;;;2.50;1.67;;;;;;;6.91;50.33;99556.25;4997631;28;20283;-79
2022/04/03 10:43:40;;;;;;;2.90;1.90;;;;;;;6.55;48.95;99563.91;4973030;28;20228;-80
2022/04/03 10:46:09;;;;;;;3.37;1.70;;;;;;;6.91;48.24;99560.69;4976030;28;20221;-80
2022/04/03 10:48:39;;;;;;;2.03;1.80;;;;;;;6.78;47.68;99565.63;4967827;28;20195;-80
2022/04/03 10:51:12;;;;;;;1.97;1.60;;;;;;;6.85;46.93;99551.25;4968918;28;20199;-80
2022/04/03 10:53:44;;;;;;;3.03;1.70;;;;;;;7.25;43.46;99552.19;4955896;28;20655;-80
2022/04/03 10:56:22;;;;;;;4.07;1.80;;;;;;;7.90;46.46;99540.41;4949461;28;20265;-80
2022/04/03 10:58:52;;;;;;;2.77;1.70;;;;;;;7.89;46.12;99541.34;4952354;28;20227;-79
2022/04/03 11:01:26;;;;;;;1.90;1.70;;;;;;;7.42;44.90;99547.84;4963208;28;20208;-80
2022/04/03 11:04:05;;;;;;;2.13;1.93;;;;;;;7.94;45.54;99550.75;4971882;28;20253;-80
2022/04/03 11:06:36;;;;;;;2.63;2.20;;;;;;;8.57;44.51;99545.94;4969939;28;20222;-79
2022/04/03 11:09:13;;;;;;;4.43;2.03;;;;;;;8.30;42.91;99542.88;4972705;28;20196;-80
2022/04/03 11:11:53;;;;;;;3.17;2.43;;;;;;;7.56;41.20;99534.06;4984062;28;20187;-81
2022/04/03 11:14:52;;;;;;;2.63;2.00;;;;;;;7.40;43.15;99533.03;5008490;28;20277;-80
2022/04/03 11:17:52;;;;;;;2.27;1.80;;;;;;;7.91;42.87;99527.16;5010785;28;20202;-79
2022/04/03 11:20:34;;;;;;;2.90;2.13;;;;;;;8.39;43.54;99522.25;5009107;28;20209;-80
2022/04/03 11:23:04;;;;;;;2.23;1.97;;;;;;;8.70;43.97;99518.97;5006348;28;20309;-80
2022/04/03 11:25:36;;;;;;;2.27;2.03;;;;;;;9.16;42.72;99523.56;5014404;28;20198;-80
2022/04/03 11:28:07;;;;;;;3.20;2.00;;;;;;;9.07;42.11;99524.06;5008692;28;20202;-80
2022/04/03 11:30:43;;;;;;;2.13;1.90;;;;;;;9.43;44.11;99515.97;5010234;28;20209;-80
2022/04/03 11:33:14;;;;;;;2.67;2.03;;;;;;;9.38;44.58;99515.38;5001389;28;20206;-81
2022/04/03 11:35:43;;;;;;;2.57;1.77;;;;;;;9.21;40.55;99511.91;4994981;28;20234;-80
2022/04/03 11:38:13;;;;;;;2.60;1.93;;;;;;;9.00;40.18;99512.09;4994145;28;20202;-81
2022/04/03 11:40:46;;;;;;;2.13;1.77;;;;;;;8.19;39.80;99510.00;4992893;28;20229;-81
2022/04/03 11:43:18;;;;;;;2.53;1.90;;;;;;;7.70;41.21;99509.69;4995038;28;20195;-80
2022/04/03 11:45:54;;;;;;;2.30;1.60;;;;;;;7.20;43.00;99504.09;4993668;28;20209;-80
2022/04/03 11:48:24;;;;;;;2.10;1.90;;;;;;;8.05;43.64;99500.13;4996116;28;20187;-81